Time;durP1;ratioP1;P1;durP2;ratioP2;P2;SDS_P1;SDS_P2;PMS_P1;PMS_P2;Temp;Humidity;BMP_temperature;BMP_pressure;BME280_temperature;BME280_humidity;BME280_pressure;Samples;Min_cycle;Max_cycle;Signal;HPM_P1;HPM_P2
2022/12/08 00:01:23;;;;;;;;;;;;;;;1.94;100.00;101164.69;6216475;23;19939;-79
2022/12/08 00:03:49;;;;;;;;;;;;;;;1.96;100.00;101153.59;6217258;23;19919;-79
2022/12/08 00:11:42;;;;;;;;;;;;;;;1.99;100.00;101150.19;6215684;23;20326;-79
2022/12/08 00:14:07;;;;;;;;;;;;;;;1.96;100.00;101142.41;6215315;23;19916;-79
2022/12/08 00:16:33;;;;;;;;;;;;;;;1.92;100.00;101135.50;6215147;23;19974;-79
2022/12/08 00:18:58;;;;;;;;;;;;;;;1.88;100.00;101127.75;6215681;23;19983;-79
2022/12/08 00:21:23;;;;;;;;;;;;;;;1.87;100.00;101132.88;6214837;23;19958;-79
2022/12/08 00:23:48;;;;;;;;;;;;;;;1.85;100.00;101131.97;6216076;23;20295;-79
2022/12/08 00:26:13;;;;;;;;;;;;;;;1.85;100.00;101129.41;6215331;23;19912;-79
2022/12/08 00:28:38;;;;;;;;;;;;;;;1.88;100.00;101124.31;6215217;23;19912;-79
2022/12/08 00:31:08;;;;;;;;;;;;;;;1.89;100.00;101123.47;6216152;23;19938;-79
2022/12/08 00:33:33;;;;;;;;;;;;;;;1.88;100.00;101122.59;6216116;23;19990;-79
2022/12/08 00:36:04;;;;;;;;;;;;;;;1.86;100.00;101120.84;6216166;23;19970;-79
2022/12/08 00:38:29;;;;;;;;;;;;;;;1.86;100.00;101115.69;6216523;23;20296;-79
2022/12/08 00:40:54;;;;;;;;;;;;;;;1.88;100.00;101111.44;6215876;23;19916;-79
2022/12/08 00:43:19;;;;;;;;;;;;;;;1.92;100.00;101112.38;6215559;23;19998;-79
2022/12/08 00:45:44;;;;;;;;;;;;;;;1.94;100.00;101110.69;6216633;23;19916;-79
2022/12/08 00:48:09;;;;;;;;;;;;;;;1.97;100.00;101105.59;6215267;23;20316;-79
2022/12/08 00:50:35;;;;;;;;;;;;;;;1.97;100.00;101103.03;6216135;23;19916;-79
2022/12/08 00:53:00;;;;;;;;;;;;;;;1.98;100.00;101103.03;6216301;23;19912;-79
2022/12/08 00:55:25;;;;;;;;;;;;;;;1.97;100.00;101109.03;6215196;23;19998;-79
2022/12/08 00:57:50;;;;;;;;;;;;;;;1.94;100.00;101108.97;6216594;23;19918;-79
2022/12/08 01:00:16;;;;;;;;;;;;;;;1.91;100.00;101102.94;6215447;23;20234;-79
2022/12/08 01:02:41;;;;;;;;;;;;;;;1.87;100.00;101102.88;6216269;23;19912;-79
2022/12/08 01:05:06;;;;;;;;;;;;;;;1.86;100.00;101087.41;6216350;23;20231;-79
2022/12/08 01:07:32;;;;;;;;;;;;;;;1.87;100.00;101090.03;6215949;23;20378;-79
2022/12/08 01:09:57;;;;;;;;;;;;;;;1.91;100.00;101090.06;6215644;23;20331;-79
2022/12/08 01:12:22;;;;;;;;;;;;;;;1.93;100.00;101085.81;6216124;23;19934;-79
2022/12/08 01:14:48;;;;;;;;;;;;;;;1.94;100.00;101085.84;6216167;23;19912;-79
2022/12/08 01:17:13;;;;;;;;;;;;;;;1.96;100.00;101078.13;6214932;23;20343;-79
2022/12/08 01:19:38;;;;;;;;;;;;;;;1.96;100.00;101084.16;6216404;23;19986;-79
2022/12/08 01:22:03;;;;;;;;;;;;;;;1.97;100.00;101088.47;6215732;23;19970;-79
2022/12/08 01:24:28;;;;;;;;;;;;;;;1.98;100.00;101082.47;6214962;23;20236;-79
2022/12/08 01:26:53;;;;;;;;;;;;;;;1.99;100.00;101075.63;6215900;23;19962;-79
2022/12/08 01:29:19;;;;;;;;;;;;;;;1.98;100.00;101071.31;6215633;23;19918;-79
2022/12/08 01:31:44;;;;;;;;;;;;;;;1.99;100.00;101071.34;6215347;23;19916;-79
2022/12/08 01:34:10;;;;;;;;;;;;;;;2.01;100.00;101074.81;6216146;23;19919;-79
2022/12/08 01:36:36;;;;;;;;;;;;;;;2.02;100.00;101078.25;6215851;23;19919;-79
2022/12/08 01:39:02;;;;;;;;;;;;;;;2.04;100.00;101077.44;6215217;23;19912;-79
2022/12/08 01:41:28;;;;;;;;;;;;;;;2.06;100.00;101069.72;6215417;23;20224;-79
2022/12/08 01:44:00;;;;;;;;;;;;;;;2.07;100.00;101072.31;6215762;23;20007;-79
2022/12/08 01:46:26;;;;;;;;;;;;;;;2.09;100.00;101080.94;6215275;23;19912;-79
2022/12/08 01:48:54;;;;;;;;;;;;;;;2.11;100.00;101079.25;6216342;23;19908;-79
2022/12/08 01:51:20;;;;;;;;;;;;;;;2.11;100.00;101076.66;6215129;23;19912;-79
2022/12/08 01:53:48;;;;;;;;;;;;;;;2.13;100.00;101069.00;6215571;23;19919;-79
2022/12/08 01:56:18;;;;;;;;;;;;;;;2.10;100.00;101062.09;6214966;23;19923;-79
2022/12/08 01:58:46;;;;;;;;;;;;;;;2.10;100.00;101067.22;6215044;23;19923;-79
2022/12/08 02:01:12;;;;;;;;;;;;;;;2.10;100.00;101062.09;6215088;23;19915;-79
2022/12/08 02:03:39;;;;;;;;;;;;;;;2.11;100.00;101060.38;6214968;23;19918;-79
2022/12/08 02:06:04;;;;;;;;;;;;;;;2.11;100.00;101061.25;6214866;23;19915;-80
2022/12/08 02:08:30;;;;;;;;;;;;;;;2.10;100.00;101061.22;6215157;23;19994;-79
2022/12/08 02:10:55;;;;;;;;;;;;;;;2.10;100.00;101061.22;6215772;23;20025;-80
2022/12/08 02:13:22;;;;;;;;;;;;;;;2.10;100.00;101056.09;6214379;23;19943;-79
2022/12/08 02:15:59;;;;;;;;;;;;;;;2.09;100.00;101050.09;6215947;23;19911;-79
2022/12/08 02:18:27;;;;;;;;;;;;;;;2.09;100.00;101052.66;6214930;23;19912;-80
2022/12/08 02:20:58;;;;;;;;;;;;;;;2.09;100.00;101049.19;6215187;23;19943;-80
2022/12/08 02:23:40;;;;;;;;;;;;;;;2.08;100.00;101048.34;6215503;23;19999;-80
2022/12/08 02:26:24;;;;;;;;;;;;;;;2.07;100.00;101040.59;6215150;23;19915;-80
2022/12/08 02:29:05;;;;;;;;;;;;;;;2.06;100.00;101041.44;6214285;23;20320;-80
2022/12/08 02:31:51;;;;;;;;;;;;;;;2.03;100.00;101034.56;6215136;23;20332;-79
2022/12/08 02:34:28;;;;;;;;;;;;;;;2.01;100.00;101028.50;6214987;23;20232;-80
2022/12/08 02:36:53;;;;;;;;;;;;;;;2.03;100.00;101028.56;6215935;23;19988;-80
2022/12/08 02:39:28;;;;;;;;;;;;;;;2.05;100.00;101019.13;6215221;23;19911;-79
2022/12/08 02:41:58;;;;;;;;;;;;;;;2.05;100.00;101029.44;6215327;23;19912;-79
2022/12/08 02:44:44;;;;;;;;;;;;;;;2.05;100.00;101021.72;6215483;23;19919;-79
2022/12/08 02:47:17;;;;;;;;;;;;;;;2.04;100.00;101013.13;6214938;23;19912;-79
2022/12/08 02:49:42;;;;;;;;;;;;;;;2.06;100.00;101018.28;6214794;23;20335;-79
2022/12/08 02:52:07;;;;;;;;;;;;;;;2.07;100.00;101013.19;6215659;23;19999;-79
2022/12/08 02:54:34;;;;;;;;;;;;;;;2.07;100.00;101005.47;6215009;23;19912;-80
2022/12/08 02:57:15;;;;;;;;;;;;;;;2.09;100.00;101002.91;6214678;23;19915;-79
2022/12/08 02:59:40;;;;;;;;;;;;;;;2.09;100.00;100995.19;6215422;23;19919;-79
2022/12/08 03:02:19;;;;;;;;;;;;;;;2.11;100.00;100990.94;6214982;23;19912;-79
2022/12/08 03:05:11;;;;;;;;;;;;;;;2.11;100.00;100996.06;6215189;23;20007;-80
2022/12/08 03:07:54;;;;;;;;;;;;;;;2.12;100.00;100987.50;6215553;23;19990;-79
2022/12/08 03:10:28;;;;;;;;;;;;;;;2.12;100.00;100987.50;6214495;23;20232;-79
2022/12/08 03:13:20;;;;;;;;;;;;;;;2.13;100.00;100993.53;6215808;23;19919;-79
2022/12/08 03:15:47;;;;;;;;;;;;;;;2.11;100.00;100986.66;6212658;23;19912;-79
2022/12/08 03:18:14;;;;;;;;;;;;;;;2.12;100.00;100984.94;6217239;23;19912;-79
2022/12/08 03:20:41;;;;;;;;;;;;;;;2.13;100.00;100990.97;6217170;23;19918;-80
2022/12/08 03:23:09;;;;;;;;;;;;;;;2.13;100.00;100986.69;6216549;23;20018;-79
2022/12/08 03:25:37;;;;;;;;;;;;;;;2.11;100.00;100978.94;6216986;23;19939;-79
2022/12/08 03:28:03;;;;;;;;;;;;;;;2.11;100.00;100984.06;6216893;23;20308;-79
2022/12/08 03:30:30;;;;;;;;;;;;;;;2.12;100.00;100972.06;6215528;23;19927;-80
2022/12/08 03:33:02;;;;;;;;;;;;;;;2.14;100.00;100969.53;6217146;23;19911;-79
2022/12/08 03:35:33;;;;;;;;;;;;;;;2.16;100.00;100970.41;6216391;23;19920;-80
2022/12/08 03:38:06;;;;;;;;;;;;;;;2.19;100.00;100962.72;6215288;23;20004;-80
2022/12/08 03:40:32;;;;;;;;;;;;;;;2.20;100.00;100964.47;6215098;23;20791;-80
2022/12/08 03:42:57;;;;;;;;;;;;;;;2.21;100.00;100956.78;6215402;23;19912;-80
2022/12/08 03:45:22;;;;;;;;;;;;;;;2.25;100.00;100952.53;6214484;23;19916;-80
2022/12/08 03:47:47;;;;;;;;;;;;;;;2.25;100.00;100955.94;6216263;23;19957;-80
2022/12/08 03:50:13;;;;;;;;;;;;;;;2.29;100.00;100951.75;6215684;23;19915;-80
2022/12/08 03:52:38;;;;;;;;;;;;;;;2.28;100.00;100952.56;6215720;23;20342;-80
2022/12/08 03:55:03;;;;;;;;;;;;;;;2.29;100.00;100950.03;6215609;23;20284;-80
2022/12/08 03:57:28;;;;;;;;;;;;;;;2.29;100.00;100946.59;6215806;23;20336;-80
2022/12/08 03:59:54;;;;;;;;;;;;;;;2.30;100.00;100950.88;6215819;23;19966;-81
2022/12/08 04:02:19;;;;;;;;;;;;;;;2.31;100.00;100950.03;6216268;23;19947;-80
2022/12/08 04:04:44;;;;;;;;;;;;;;;2.32;100.00;100944.03;6216285;23;19985;-81
2022/12/08 04:07:09;;;;;;;;;;;;;;;2.33;100.00;100940.63;6215810;23;20339;-80
2022/12/08 04:09:34;;;;;;;;;;;;;;;2.32;100.00;100938.88;6215754;23;19920;-80
2022/12/08 04:11:59;;;;;;;;;;;;;;;2.34;100.00;100937.19;6215362;23;19912;-81
2022/12/08 04:14:25;;;;;;;;;;;;;;;2.33;100.00;100936.34;6216084;23;20221;-81
2022/12/08 04:16:50;;;;;;;;;;;;;;;2.33;100.00;100928.63;6215946;23;19912;-80
2022/12/08 04:19:15;;;;;;;;;;;;;;;2.32;100.00;100938.88;6215434;23;19959;-81
2022/12/08 04:21:40;;;;;;;;;;;;;;;2.30;100.00;100933.72;6216428;23;19920;-81
2022/12/08 04:24:06;;;;;;;;;;;;;;;2.32;100.00;100928.59;6216122;23;19912;-81
2022/12/08 04:26:31;;;;;;;;;;;;;;;2.31;100.00;100939.75;6214825;23;19916;-80
2022/12/08 04:28:56;;;;;;;;;;;;;;;2.32;100.00;100933.72;6216326;23;19974;-81
2022/12/08 04:31:21;;;;;;;;;;;;;;;2.30;100.00;100926.00;6214830;23;19916;-81
2022/12/08 04:33:47;;;;;;;;;;;;;;;2.31;100.00;100926.88;6215294;23;20014;-80
2022/12/08 04:36:12;;;;;;;;;;;;;;;2.30;100.00;100922.59;6215617;23;19934;-81
2022/12/08 04:38:37;;;;;;;;;;;;;;;2.28;100.00;100919.13;6216012;23;19912;-81
2022/12/08 04:41:03;;;;;;;;;;;;;;;2.29;100.00;100918.28;6215173;23;20228;-81
2022/12/08 04:43:28;;;;;;;;;;;;;;;2.27;100.00;100913.13;6215611;23;19915;-81
2022/12/08 04:45:53;;;;;;;;;;;;;;;2.27;100.00;100912.25;6215644;23;19936;-81
2022/12/08 04:48:18;;;;;;;;;;;;;;;2.27;100.00;100914.81;6215666;23;20292;-81
2022/12/08 04:50:44;;;;;;;;;;;;;;;2.26;100.00;100892.53;6216428;23;19912;-81
2022/12/08 04:53:10;;;;;;;;;;;;;;;2.26;100.00;100890.81;6215859;23;19912;-81
2022/12/08 04:55:39;;;;;;;;;;;;;;;2.25;100.00;100906.22;6215589;23;19920;-81
2022/12/08 04:58:04;;;;;;;;;;;;;;;2.24;100.00;100904.50;6216071;23;20328;-81
2022/12/08 05:00:29;;;;;;;;;;;;;;;2.24;100.00;100917.38;6215813;23;19916;-81
2022/12/08 05:02:55;;;;;;;;;;;;;;;2.23;100.00;100902.78;6215360;23;19939;-81
2022/12/08 05:05:20;;;;;;;;;;;;;;;2.24;100.00;100889.94;6214985;23;19912;-81
2022/12/08 05:07:45;;;;;;;;;;;;;;;2.19;100.00;100898.44;6216087;23;19943;-81
2022/12/08 05:10:10;;;;;;;;;;;;;;;2.13;100.00;100894.09;6215384;23;19912;-81
2022/12/08 05:12:35;;;;;;;;;;;;;;;2.11;100.00;100909.50;6216522;23;19918;-81
2022/12/08 05:15:01;;;;;;;;;;;;;;;2.08;100.00;100909.44;6216060;23;19919;-81
2022/12/08 05:17:26;;;;;;;;;;;;;;;2.06;100.00;100910.28;6214884;23;20232;-81
2022/12/08 05:19:51;;;;;;;;;;;;;;;2.06;100.00;100910.28;6215511;23;19919;-81
2022/12/08 05:22:16;;;;;;;;;;;;;;;2.07;100.00;100907.75;6215901;23;19912;-81
2022/12/08 05:24:41;;;;;;;;;;;;;;;2.09;100.00;100900.91;6215647;23;19912;-81
2022/12/08 05:27:08;;;;;;;;;;;;;;;2.09;100.00;100895.78;6215729;23;19915;-81
2022/12/08 05:29:33;;;;;;;;;;;;;;;2.09;100.00;100895.78;6215185;23;19916;-81
2022/12/08 05:31:58;;;;;;;;;;;;;;;2.09;100.00;100895.78;6216078;23;20327;-81
2022/12/08 05:34:23;;;;;;;;;;;;;;;2.10;100.00;100896.63;6215636;23;19912;-81
2022/12/08 05:36:48;;;;;;;;;;;;;;;2.11;100.00;100895.78;6214553;23;19916;-81
2022/12/08 05:39:14;;;;;;;;;;;;;;;2.11;100.00;100899.22;6215621;23;19969;-81
2022/12/08 05:41:39;;;;;;;;;;;;;;;2.13;100.00;100900.97;6216042;23;20240;-81
2022/12/08 05:44:04;;;;;;;;;;;;;;;2.10;100.00;100894.06;6214799;23;19934;-81
2022/12/08 05:46:30;;;;;;;;;;;;;;;2.09;100.00;100898.34;6215900;23;19915;-82
2022/12/08 05:48:55;;;;;;;;;;;;;;;2.06;100.00;100895.72;6215543;23;19935;-82
2022/12/08 05:51:21;;;;;;;;;;;;;;;2.02;100.00;100893.09;6214832;23;19916;-84
2022/12/08 05:53:47;;;;;;;;;;;;;;;2.00;100.00;100892.22;6215911;23;19978;-84
2022/12/08 05:56:13;;;;;;;;;;;;;;;1.99;100.00;100891.34;6214898;23;19923;-83
2022/12/08 05:58:38;;;;;;;;;;;;;;;1.99;100.00;100896.47;6215500;23;19912;-83
2022/12/08 06:01:04;;;;;;;;;;;;;;;2.02;100.00;100893.09;6215612;23;19947;-84
2022/12/08 06:03:29;;;;;;;;;;;;;;;2.02;100.00;100890.50;6214946;23;19911;-85
2022/12/08 06:05:54;;;;;;;;;;;;;;;2.02;100.00;100893.94;6214572;23;19958;-84
2022/12/08 06:08:19;;;;;;;;;;;;;;;2.04;100.00;100897.41;6215169;23;19908;-84
2022/12/08 06:10:45;;;;;;;;;;;;;;;2.03;100.00;100887.13;6215064;23;19918;-84
2022/12/08 06:13:10;;;;;;;;;;;;;;;2.01;100.00;100886.22;6214597;23;19911;-83
2022/12/08 06:15:36;;;;;;;;;;;;;;;2.01;100.00;100878.50;6215604;23;19915;-82
2022/12/08 06:18:01;;;;;;;;;;;;;;;2.01;100.00;100879.38;6215280;23;19919;-83
2022/12/08 06:20:27;;;;;;;;;;;;;;;2.01;100.00;100874.22;6214366;23;19954;-82
2022/12/08 06:22:53;;;;;;;;;;;;;;;2.04;100.00;100875.97;6215749;23;19912;-82
2022/12/08 06:25:18;;;;;;;;;;;;;;;2.06;100.00;100881.97;6214766;23;19943;-82
2022/12/08 06:27:43;;;;;;;;;;;;;;;2.07;100.00;100871.72;6213732;23;20275;-82
2022/12/08 06:30:08;;;;;;;;;;;;;;;2.11;100.00;100870.91;6214727;23;19947;-82
2022/12/08 06:32:34;;;;;;;;;;;;;;;2.13;100.00;100867.53;6214942;23;19912;-81
2022/12/08 06:35:00;;;;;;;;;;;;;;;2.10;100.00;100866.63;6215084;23;20311;-82
2022/12/08 06:37:25;;;;;;;;;;;;;;;2.08;100.00;100870.88;6214959;23;19916;-82
2022/12/08 06:39:50;;;;;;;;;;;;;;;2.06;100.00;100870.03;6214759;23;19912;-82
2022/12/08 06:45:00;;;;;;;;;;;;;;;2.11;100.00;100888.91;6215133;23;19919;-81
2022/12/08 06:47:25;;;;;;;;;;;;;;;2.06;100.00;100863.97;6214557;23;19919;-81
2022/12/08 06:49:50;;;;;;;;;;;;;;;2.17;100.00;100877.84;6216875;23;19998;-82
2022/12/08 06:52:15;;;;;;;;;;;;;;;2.19;100.00;100886.47;6217010;23;19923;-82
2022/12/08 06:54:40;;;;;;;;;;;;;;;2.20;100.00;100866.72;6217002;23;19951;-82
2022/12/08 06:57:05;;;;;;;;;;;;;;;2.22;100.00;100872.75;6217042;23;20314;-82
2022/12/08 06:59:31;;;;;;;;;;;;;;;2.22;100.00;100875.31;6216986;23;20282;-82
2022/12/08 07:01:56;;;;;;;;;;;;;;;2.24;100.00;100869.34;6216724;23;20267;-82
2022/12/08 07:04:21;;;;;;;;;;;;;;;2.27;100.00;100865.94;6216957;23;20312;-82
2022/12/08 07:06:46;;;;;;;;;;;;;;;2.27;100.00;100868.53;6216976;23;19915;-82
2022/12/08 07:09:12;;;;;;;;;;;;;;;2.25;100.00;100870.19;6216794;23;19913;-82
2022/12/08 07:11:37;;;;;;;;;;;;;;;2.22;100.00;100881.31;6217286;23;20312;-82
2022/12/08 07:14:02;;;;;;;;;;;;;;;2.21;100.00;100879.59;6217308;23;20030;-82
2022/12/08 07:16:28;;;;;;;;;;;;;;;2.22;100.00;100877.88;6216474;23;20316;-82
2022/12/08 07:18:53;;;;;;;;;;;;;;;2.22;100.00;100876.16;6217408;23;19930;-82
2022/12/08 07:21:18;;;;;;;;;;;;;;;2.21;100.00;100871.03;6216370;23;19916;-82
2022/12/08 07:23:47;;;;;;;;;;;;;;;2.20;100.00;100874.44;6216279;23;19919;-82
2022/12/08 07:26:12;;;;;;;;;;;;;;;2.18;100.00;100879.56;6216414;23;19912;-82
2022/12/08 07:28:38;;;;;;;;;;;;;;;2.20;100.00;100877.88;6217506;23;19957;-82
2022/12/08 07:31:04;;;;;;;;;;;;;;;2.20;100.00;100875.31;6215746;23;20340;-81
2022/12/08 07:33:30;;;;;;;;;;;;;;;2.22;100.00;100877.88;6216140;23;19931;-81
2022/12/08 07:35:56;;;;;;;;;;;;;;;2.20;100.00;100880.47;6217002;23;19919;-82
2022/12/08 07:38:21;;;;;;;;;;;;;;;2.18;100.00;100878.72;6216133;23;19912;-82
2022/12/08 07:40:46;;;;;;;;;;;;;;;2.16;100.00;100881.28;6216642;23;19943;-82
2022/12/08 07:43:11;;;;;;;;;;;;;;;2.15;100.00;100873.53;6215923;23;20235;-82
2022/12/08 07:45:36;;;;;;;;;;;;;;;2.11;100.00;100863.19;6216390;23;19916;-83
2022/12/08 07:48:02;;;;;;;;;;;;;;;2.11;100.00;100876.06;6216085;23;19912;-82
2022/12/08 07:50:27;;;;;;;;;;;;;;;2.10;100.00;100873.47;6215870;23;19916;-83
2022/12/08 07:52:52;;;;;;;;;;;;;;;2.11;100.00;100867.47;6217128;23;19919;-82
2022/12/08 07:55:17;;;;;;;;;;;;;;;2.11;100.00;100870.06;6216469;23;19916;-82
2022/12/08 07:57:42;;;;;;;;;;;;;;;2.13;100.00;100888.09;6216313;23;20356;-82
2022/12/08 08:00:09;;;;;;;;;;;;;;;2.10;100.00;100889.78;6216812;23;19912;-83
2022/12/08 08:02:34;;;;;;;;;;;;;;;2.10;100.00;100889.78;6215986;23;19916;-84
2022/12/08 08:04:59;;;;;;;;;;;;;;;2.09;100.00;100890.63;6216155;23;20049;-84
2022/12/08 08:07:25;;;;;;;;;;;;;;;2.08;100.00;100885.44;6215294;23;20363;-84
2022/12/08 08:09:50;;;;;;;;;;;;;;;2.04;100.00;100888.84;6215759;23;19983;-85
2022/12/08 08:12:15;;;;;;;;;;;;;;;2.03;100.00;100882.84;6236893;22;19919;-84
2022/12/08 08:14:40;;;;;;;;;;;;;;;2.04;100.00;100887.13;6277908;22;19973;-84
2022/12/08 08:17:05;;;;;;;;;;;;;;;2.03;100.00;100880.25;6277316;22;19911;-85
2022/12/08 08:19:31;;;;;;;;;;;;;;;2.03;100.00;100880.25;6276544;22;19919;-83
2022/12/08 08:21:56;;;;;;;;;;;;;;;2.04;100.00;100887.13;6277492;22;19911;-82
2022/12/08 08:24:23;;;;;;;;;;;;;;;2.06;100.00;100885.44;6275707;22;19993;-82
2022/12/08 08:26:48;;;;;;;;;;;;;;;2.08;100.00;100888.88;6277181;22;19912;-81
2022/12/08 08:29:13;;;;;;;;;;;;;;;2.09;100.00;100890.63;6276984;22;20280;-82
2022/12/08 08:31:38;;;;;;;;;;;;;;;2.11;100.00;100888.91;6277096;22;20362;-81
2022/12/08 08:34:05;;;;;;;;;;;;;;;2.13;100.00;100899.25;6276362;22;19990;-82
2022/12/08 08:36:30;;;;;;;;;;;;;;;2.15;100.00;100891.53;6276872;22;20394;-81
2022/12/08 08:38:55;;;;;;;;;;;;;;;2.16;100.00;100876.13;6277292;22;19911;-81
2022/12/08 08:41:20;;;;;;;;;;;;;;;2.17;100.00;100883.00;6276443;22;20378;-81
2022/12/08 08:43:45;;;;;;;;;;;;;;;2.17;100.00;100879.56;6276495;22;19911;-81
2022/12/08 08:46:11;;;;;;;;;;;;;;;2.21;100.00;100882.16;6277110;22;19965;-82
2022/12/08 08:48:36;;;;;;;;;;;;;;;2.23;100.00;100875.34;6277043;22;20319;-81
2022/12/08 08:51:08;;;;;;;;;;;;;;;2.27;100.00;100883.97;6277618;22;20223;-88
2022/12/08 08:53:34;;;;;;;;;;;;;;;2.28;100.00;100880.53;6275379;22;19911;-80
2022/12/08 08:55:59;;;;;;;;;;;;;;;2.33;100.00;100879.75;6276566;22;20349;-81
2022/12/08 08:58:25;;;;;;;;;;;;;;;2.40;100.00;100877.25;6275766;22;20355;-81
2022/12/08 09:00:50;;;;;;;;;;;;;;;2.43;100.00;100880.72;6276375;22;19950;-80
2022/12/08 09:03:15;;;;;;;;;;;;;;;2.48;100.00;100878.16;6277005;22;19998;-81
2022/12/08 09:05:40;;;;;;;;;;;;;;;2.53;100.00;100877.38;6277327;22;20342;-81
2022/12/08 09:08:06;;;;;;;;;;;;;;;2.48;100.00;100873.88;6276300;22;19946;-81
2022/12/08 09:10:31;;;;;;;;;;;;;;;2.47;100.00;100872.16;6277053;22;19911;-81
2022/12/08 09:12:56;;;;;;;;;;;;;;;2.48;100.00;100873.00;6275726;22;20700;-88
2022/12/08 09:15:22;;;;;;;;;;;;;;;2.49;100.00;100870.47;6276051;22;19912;-87
2022/12/08 09:17:47;;;;;;;;;;;;;;;2.50;100.00;100871.34;6276609;22;20376;-80
2022/12/08 09:20:12;;;;;;;;;;;;;;;2.47;100.00;100871.31;6275912;22;20234;-81
2022/12/08 09:22:37;;;;;;;;;;;;;;;2.41;100.00;100872.09;6275543;22;19918;-81
2022/12/08 09:25:03;;;;;;;;;;;;;;;2.39;100.00;100868.66;6277188;22;19918;-81
2022/12/08 09:27:28;;;;;;;;;;;;;;;2.46;100.00;100874.72;6275709;22;19916;-82
2022/12/08 09:29:53;;;;;;;;;;;;;;;2.55;100.00;100873.13;6276187;22;19965;-81
2022/12/08 09:32:18;;;;;;;;;;;;;;;2.54;100.00;100870.50;6276604;22;19994;-81
2022/12/08 09:34:43;;;;;;;;;;;;;;;2.57;100.00;100857.66;6276491;22;20226;-81
2022/12/08 09:37:08;;;;;;;;;;;;;;;2.62;100.00;100873.19;6276096;22;19938;-81
2022/12/08 09:39:34;;;;;;;;;;;;;;;2.63;100.00;100869.75;6276762;22;19947;-81
2022/12/08 09:42:05;;;;;;;;;;;;;;;2.65;100.00;100866.34;6277113;22;19924;-80
2022/12/08 09:44:33;;;;;;;;;;;;;;;2.63;100.00;100862.03;6274468;22;19915;-79
2022/12/08 09:47:00;;;;;;;;;;;;;;;2.64;100.00;100864.59;6276228;22;19915;-80
2022/12/08 09:49:36;;;;;;;;;;;;;;;2.66;100.00;100867.19;6276824;22;19911;-79
2022/12/08 09:52:02;;;;;;;;;;;;;;;2.66;100.00;100865.47;6276036;22;19911;-82
2022/12/08 09:54:31;;;;;;;;;;;;;;;2.67;100.00;100866.34;6276294;22;19937;-82
2022/12/08 09:56:58;;;;;;;;;;;;;;;2.72;100.00;100857.81;6276106;22;19918;-81
2022/12/08 09:59:29;;;;;;;;;;;;;;;2.79;100.00;100858.75;6276121;22;19912;-79
2022/12/08 10:01:54;;;;;;;;;;;;;;;2.87;100.00;100862.22;6276578;22;19914;-78
2022/12/08 10:04:19;;;;;;;;;;;;;;;2.89;100.00;100864.81;6275706;22;20008;-79
2022/12/08 10:07:11;;;;;;;;;;;;;;;2.80;100.00;100861.31;6276964;22;19911;-79
2022/12/08 10:09:36;;;;;;;;;;;;;;;2.78;100.00;100862.16;6276402;22;20027;-77
2022/12/08 10:12:05;;;;;;;;;;;;;;;2.75;100.00;100857.00;6275782;22;20295;-79
2022/12/08 10:14:35;;;;;;;;;;;;;;;2.68;100.00;100847.47;6276109;22;19950;-80
2022/12/08 10:17:04;;;;;;;;;;;;;;;2.67;100.00;100848.31;6276884;22;19911;-80
2022/12/08 10:19:30;;;;;;;;;;;;;;;2.61;100.00;100849.13;6275553;22;20239;-80
2022/12/08 10:21:55;;;;;;;;;;;;;;;2.60;100.00;100849.13;6276016;22;19915;-80
2022/12/08 10:24:24;;;;;;;;;;;;;;;2.62;100.00;100840.56;6274830;22;19918;-79
2022/12/08 10:26:50;;;;;;;;;;;;;;;2.60;100.00;100844.84;6274919;22;20341;-79
2022/12/08 10:29:15;;;;;;;;;;;;;;;2.58;100.00;100849.97;6276249;22;19982;-79
2022/12/08 10:31:41;;;;;;;;;;;;;;;2.55;100.00;100834.50;6275838;22;20238;-80
2022/12/08 10:34:13;;;;;;;;;;;;;;;2.55;100.00;100838.75;6275347;22;19912;-80
2022/12/08 10:36:50;;;;;;;;;;;;;;;2.58;100.00;100833.66;6275722;22;19986;-80
2022/12/08 10:39:35;;;;;;;;;;;;;;;2.60;100.00;100838.81;6275004;22;20327;-82
2022/12/08 10:42:06;;;;;;;;;;;;;;;2.64;100.00;100838.00;6276338;22;20244;-92
2022/12/08 10:44:31;;;;;;;;;;;;;;;2.62;100.00;100840.56;6275729;22;19911;-82
2022/12/08 10:46:56;;;;;;;;;;;;;;;2.58;100.00;100836.22;6275323;22;19988;-82
2022/12/08 10:49:27;;;;;;;;;;;;;;;2.53;100.00;100837.91;6275820;22;19954;-82
2022/12/08 10:51:52;;;;;;;;;;;;;;;2.43;100.00;100839.53;6275770;22;20345;-82
2022/12/08 10:54:25;;;;;;;;;;;;;;;2.43;100.00;100836.97;6274992;22;19986;-83
2022/12/08 10:56:54;;;;;;;;;;;;;;;2.43;100.00;100843.81;6276138;22;19973;-82
2022/12/08 10:59:20;;;;;;;;;;;;;;;2.37;100.00;100841.19;6276320;22;19961;-83
2022/12/08 11:01:47;;;;;;;;;;;;;;;2.33;100.00;100837.72;6276016;22;20231;-84
2022/12/08 11:04:15;;;;;;;;;;;;;;;2.30;100.00;100842.84;6275498;22;19911;-84
2022/12/08 11:06:41;;;;;;;;;;;;;;;2.29;100.00;100839.41;6276162;22;19918;-84
2022/12/08 11:09:29;;;;;;;;;;;;;;;2.29;100.00;100835.97;6259052;22;19920;-84
2022/12/08 11:11:59;;;;;;;;;;;;;;;2.24;100.00;100829.91;6244304;23;19912;-84
2022/12/08 11:14:24;;;;;;;;;;;;;;;2.28;100.00;100840.22;6244114;23;19947;-84
2022/12/08 11:16:55;;;;;;;;;;;;;;;2.29;100.00;100826.53;6246022;23;20354;-85
2022/12/08 11:19:27;;;;;;;;;;;;;;;2.29;100.00;100825.69;6245321;23;19915;-84
2022/12/08 11:24:45;;;;;;;;;;;;;;;2.22;100.00;100818.72;6232909;22;19927;-85
2022/12/08 11:27:10;;;;;;;;;;;;;;;2.22;100.00;100811.00;6215143;23;19919;-85
2022/12/08 11:30:07;;;;;;;;;;;;;;;2.25;100.00;100805.91;6213900;23;19912;-84
2022/12/08 11:35:54;;;;;;;;;;;;;;;2.31;100.00;100804.25;6213084;23;19923;-84
2022/12/08 11:38:20;;;;;;;;;;;;;;;2.38;100.00;100794.00;6216367;23;20324;-83
2022/12/08 11:40:47;;;;;;;;;;;;;;;2.42;100.00;100801.78;6233383;22;19919;-84
2022/12/08 11:43:49;;;;;;;;;;;;;;;2.44;100.00;100799.22;6276159;22;20239;-85
2022/12/08 11:46:17;;;;;;;;;;;;;;;2.47;100.00;100794.97;6277440;22;19920;-86
2022/12/08 11:48:45;;;;;;;;;;;;;;;2.47;100.00;100802.69;6277579;22;19922;-84
2022/12/08 11:51:16;;;;;;;;;;;;;;;2.41;100.00;100805.19;6276342;22;19915;-84
2022/12/08 11:54:00;;;;;;;;;;;;;;;2.39;100.00;100796.63;6277742;22;19934;-82
2022/12/08 11:56:44;;;;;;;;;;;;;;;2.37;100.00;100793.16;6277077;22;19911;-83
2022/12/08 11:59:49;;;;;;;;;;;;;;;2.38;100.00;100791.44;6276803;22;20315;-82
2022/12/08 12:02:16;;;;;;;;;;;;;;;2.32;100.00;100789.66;6275159;22;20088;-82
2022/12/08 12:04:59;;;;;;;;;;;;;;;2.27;100.00;100789.63;6276673;22;19935;-82
2022/12/08 12:07:46;;;;;;;;;;;;;;;2.24;100.00;100788.75;6277088;22;19912;-81
2022/12/08 12:10:35;;;;;;;;;;;;;;;2.29;100.00;100785.38;6275843;22;20005;-83
2022/12/08 12:16:24;;;;;;;;;;;;;;;2.32;100.00;100780.25;6277371;22;19918;-84
2022/12/08 12:25:28;;;;;;;;;;;;;;;2.37;100.00;100770.00;6276255;22;19926;-83
2022/12/08 12:37:30;;;;;;;;;;;;;;;2.56;100.00;100763.31;6238182;22;19930;-83
2022/12/08 12:40:23;;;;;;;;;;;;;;;2.62;100.00;100763.34;6274862;22;19919;-83
2022/12/08 12:49:20;;;;;;;;;;;;;;;2.60;100.00;100753.91;6214674;23;19958;-80
2022/12/08 12:55:01;;;;;;;;;;;;;;;2.69;100.00;100743.66;6214075;23;20358;-83
2022/12/08 12:58:01;;;;;;;;;;;;;;;2.76;100.00;100746.28;6215511;23;19919;-83
2022/12/08 13:00:42;;;;;;;;;;;;;;;2.81;100.00;100748.88;6149943;23;19967;-82
2022/12/08 13:03:19;;;;;;;;;;;;;;;2.82;100.00;100745.47;6210706;23;19919;-85
2022/12/08 13:06:14;;;;;;;;;;;;;;;2.85;100.00;100744.66;6215295;23;19923;-85
2022/12/08 13:11:28;;;;;;;;;;;;;;;2.79;100.00;100745.47;6244291;23;19919;-85
2022/12/08 13:13:56;;;;;;;;;;;;;;;2.76;100.00;100742.84;6246411;23;19915;-85
2022/12/08 13:16:36;;;;;;;;;;;;;;;2.84;100.00;100743.75;6191988;23;20224;-84
2022/12/08 13:19:24;;;;;;;;;;;;;;;2.90;100.00;100742.94;6244540;23;19912;-82
2022/12/08 13:21:52;;;;;;;;;;;;;;;2.85;100.00;100745.50;6243902;23;19919;-83
2022/12/08 13:24:52;;;;;;;;;;;;;;;2.88;100.00;100744.63;6244804;23;19918;-84
2022/12/08 13:27:17;;;;;;;;;;;;;;;2.94;100.00;100739.53;6244297;23;20335;-82